createdAt,value
2018-08-12T00:00:51.592Z,38.42
2018-08-12T00:03:18.301Z,38.35
2018-08-12T00:05:44.937Z,38.47
2018-08-12T00:08:11.648Z,38.48
2018-08-12T00:10:38.290Z,38.52
2018-08-12T00:13:04.963Z,38.55
2018-08-12T00:15:31.617Z,38.64
2018-08-12T00:17:58.261Z,38.64
2018-08-12T00:20:24.891Z,38.60
2018-08-12T00:22:51.535Z,38.67
2018-08-12T00:25:18.172Z,38.66
2018-08-12T00:27:44.875Z,38.67
2018-08-12T00:30:11.554Z,38.60
2018-08-12T00:32:38.228Z,38.66
2018-08-12T00:35:04.868Z,38.68
2018-08-12T00:37:31.511Z,38.71
2018-08-12T00:39:58.146Z,38.81
2018-08-12T00:42:24.798Z,38.80
2018-08-12T00:44:51.467Z,38.89
2018-08-12T00:47:18.107Z,38.83
2018-08-12T00:49:44.745Z,38.86
2018-08-12T00:52:11.391Z,38.84
2018-08-12T00:54:38.074Z,38.96
2018-08-12T00:57:04.740Z,39.01
2018-08-12T00:59:31.431Z,38.94
2018-08-12T01:01:58.053Z,39.05
2018-08-12T01:04:24.704Z,39.08
2018-08-12T01:06:51.371Z,39.11
2018-08-12T01:09:17.980Z,39.21
2018-08-12T01:11:44.617Z,39.32
2018-08-12T01:14:11.268Z,39.29
2018-08-12T01:16:37.903Z,39.40
2018-08-12T01:19:04.541Z,39.40
2018-08-12T01:21:31.190Z,39.43
2018-08-12T01:23:57.820Z,39.51
2018-08-12T01:26:24.625Z,39.51
2018-08-12T01:28:51.261Z,39.54
2018-08-12T01:31:17.939Z,39.57
2018-08-12T01:33:44.582Z,39.56
2018-08-12T01:36:11.216Z,39.69
2018-08-12T01:38:37.862Z,39.71
2018-08-12T01:41:04.548Z,39.58
2018-08-12T01:43:31.211Z,39.64
2018-08-12T01:45:57.894Z,39.71
2018-08-12T01:48:24.581Z,39.71
2018-08-12T01:50:51.242Z,39.81
2018-08-12T01:53:17.934Z,40.01
2018-08-12T01:55:44.567Z,39.97
2018-08-12T01:58:11.217Z,39.92
2018-08-12T02:00:37.854Z,39.98
2018-08-12T02:03:04.538Z,39.94
2018-08-12T02:05:31.175Z,39.96
2018-08-12T02:07:57.817Z,40.02
2018-08-12T02:10:24.487Z,39.96
2018-08-12T02:12:51.124Z,40.09
2018-08-12T02:15:17.835Z,40.15
2018-08-12T02:17:44.469Z,40.17
2018-08-12T02:20:11.101Z,40.16
2018-08-12T02:22:37.872Z,40.18
2018-08-12T02:25:04.513Z,40.28
2018-08-12T02:27:31.162Z,40.31
2018-08-12T02:29:57.848Z,40.18
2018-08-12T02:32:24.492Z,40.37
2018-08-12T02:34:51.190Z,40.53
2018-08-12T02:37:17.850Z,40.50
2018-08-12T02:39:44.555Z,40.49
2018-08-12T02:42:11.332Z,40.51
2018-08-12T02:44:37.984Z,40.49
2018-08-12T02:47:04.621Z,40.54
2018-08-12T02:49:31.264Z,40.55
2018-08-12T02:51:57.939Z,40.52
2018-08-12T02:54:24.581Z,40.58
2018-08-12T02:56:51.276Z,40.56
2018-08-12T02:59:17.959Z,40.65
2018-08-12T03:01:44.655Z,40.71
2018-08-12T03:04:11.288Z,40.69
2018-08-12T03:06:37.920Z,40.74
2018-08-12T03:09:04.573Z,40.81
2018-08-12T03:11:31.270Z,40.76
2018-08-12T03:13:57.894Z,40.78
2018-08-12T03:16:24.563Z,40.80
2018-08-12T03:18:51.202Z,40.88
2018-08-12T03:21:17.846Z,40.89
2018-08-12T03:23:44.481Z,40.88
2018-08-12T03:26:11.163Z,40.89
2018-08-12T03:28:37.813Z,40.87
2018-08-12T03:31:04.504Z,41.10
2018-08-12T03:33:31.137Z,41.07
2018-08-12T03:35:57.816Z,41.11
2018-08-12T03:38:24.514Z,41.11
2018-08-12T03:40:51.183Z,41.17
2018-08-12T03:43:17.808Z,41.23
2018-08-12T03:45:44.499Z,41.18
2018-08-12T03:48:11.132Z,41.25
2018-08-12T03:50:37.802Z,41.23
2018-08-12T03:53:04.485Z,41.31
2018-08-12T03:55:31.163Z,41.33
2018-08-12T03:57:57.797Z,41.30
2018-08-12T04:00:24.427Z,41.25
2018-08-12T04:02:51.127Z,41.25
2018-08-12T04:05:17.762Z,41.41
2018-08-12T04:07:47.618Z,41.49
2018-08-12T04:10:14.261Z,41.37
2018-08-12T04:12:40.887Z,41.51
2018-08-12T04:15:07.517Z,41.46
2018-08-12T04:17:34.182Z,41.46
2018-08-12T04:20:00.820Z,41.45
2018-08-12T04:22:27.460Z,41.47
2018-08-12T04:24:55.512Z,41.44
2018-08-12T04:27:20.744Z,41.77
2018-08-12T04:29:47.388Z,41.59
2018-08-12T04:32:17.022Z,41.72
2018-08-12T04:34:43.654Z,41.62
2018-08-12T04:37:10.304Z,41.65
2018-08-12T04:39:36.950Z,41.58
2018-08-12T04:42:03.589Z,41.67
2018-08-12T04:44:30.229Z,41.72
2018-08-12T04:46:56.868Z,41.61
2018-08-12T04:49:23.551Z,41.54
2018-08-12T04:51:50.141Z,41.45
2018-08-12T04:54:16.782Z,41.48
2018-08-12T04:56:43.421Z,41.26
2018-08-12T04:59:10.056Z,41.26
2018-08-12T05:01:36.696Z,41.21
2018-08-12T05:04:03.357Z,41.14
2018-08-12T05:06:29.984Z,40.76
2018-08-12T05:08:56.628Z,40.80
2018-08-12T05:11:23.267Z,41.02
2018-08-12T05:13:49.927Z,40.88
2018-08-12T05:16:16.585Z,41.00
2018-08-12T05:18:43.231Z,40.71
2018-08-12T05:21:09.867Z,40.69
2018-08-12T05:23:36.505Z,40.54
2018-08-12T05:26:03.148Z,40.37
2018-08-12T05:28:29.787Z,40.05
2018-08-12T05:30:56.419Z,39.81
2018-08-12T05:33:23.057Z,39.51
2018-08-12T05:35:49.706Z,38.88
2018-08-12T05:38:16.337Z,39.20
2018-08-12T05:40:42.974Z,39.36
2018-08-12T05:43:09.613Z,39.37
2018-08-12T05:45:36.256Z,39.41
2018-08-12T05:48:02.883Z,39.36
2018-08-12T05:50:29.526Z,39.35
2018-08-12T05:52:56.164Z,38.98
2018-08-12T05:55:22.794Z,38.91
2018-08-12T05:57:49.435Z,38.53
2018-08-12T06:00:16.095Z,38.61
2018-08-12T06:02:42.795Z,38.93
2018-08-12T06:05:09.381Z,39.01
2018-08-12T06:07:36.111Z,39.24
2018-08-12T06:10:02.750Z,38.99
2018-08-12T06:12:29.392Z,39.28
2018-08-12T06:14:56.027Z,39.21
2018-08-12T06:17:22.684Z,39.29
2018-08-12T06:19:49.337Z,39.14
2018-08-12T06:22:16.003Z,39.34
2018-08-12T06:24:42.754Z,39.31
2018-08-12T06:27:09.402Z,39.43
2018-08-12T06:29:36.037Z,39.33
2018-08-12T06:32:02.682Z,39.27
2018-08-12T06:34:29.451Z,39.35
2018-08-12T06:36:55.996Z,39.19
2018-08-12T06:39:22.663Z,39.27
2018-08-12T06:41:49.311Z,39.22
2018-08-12T06:44:15.989Z,39.22
2018-08-12T06:46:42.626Z,39.34
2018-08-12T06:49:09.256Z,39.20
2018-08-12T06:51:35.901Z,39.28
2018-08-12T06:54:02.539Z,39.39
2018-08-12T06:56:29.165Z,39.28
2018-08-12T06:58:55.803Z,39.54
2018-08-12T07:01:22.451Z,39.24
2018-08-12T07:03:49.175Z,39.34
2018-08-12T07:06:15.803Z,39.40
2018-08-12T07:08:42.449Z,39.39
2018-08-12T07:11:09.092Z,39.30
2018-08-12T07:13:35.748Z,39.42
2018-08-12T07:16:02.385Z,39.33
2018-08-12T07:18:29.084Z,39.33
2018-08-12T07:20:55.699Z,39.23
2018-08-12T07:23:22.349Z,39.48
2018-08-12T07:25:48.995Z,39.49
2018-08-12T07:28:15.639Z,39.56
2018-08-12T07:30:42.281Z,39.57
2018-08-12T07:33:08.906Z,39.60
2018-08-12T07:35:35.544Z,39.69
2018-08-12T07:38:02.231Z,39.64
2018-08-12T07:40:28.879Z,39.78
2018-08-12T07:42:55.507Z,39.72
2018-08-12T07:45:22.183Z,39.69
2018-08-12T07:47:48.831Z,39.75
2018-08-12T07:50:15.473Z,39.59
2018-08-12T07:52:42.122Z,39.59
2018-08-12T07:55:08.756Z,39.76
2018-08-12T07:57:35.397Z,39.76
2018-08-12T08:00:02.126Z,39.58
2018-08-12T08:02:28.768Z,39.64
2018-08-12T08:04:55.397Z,39.71
2018-08-12T08:07:22.063Z,39.65
2018-08-12T08:09:48.697Z,39.66
2018-08-12T08:12:15.348Z,39.57
2018-08-12T08:14:41.986Z,39.63
2018-08-12T08:17:08.632Z,39.51
2018-08-12T08:19:35.326Z,39.47
2018-08-12T08:22:01.970Z,39.31
2018-08-12T08:24:28.608Z,39.18
2018-08-12T08:26:55.291Z,39.19
2018-08-12T08:29:21.911Z,39.01
2018-08-12T08:31:48.784Z,38.89
2018-08-12T08:34:15.224Z,38.89
2018-08-12T08:36:41.867Z,38.71
2018-08-12T08:39:08.517Z,38.50
2018-08-12T08:41:35.161Z,38.32
2018-08-12T08:44:01.907Z,38.40
2018-08-12T08:46:28.477Z,38.21
2018-08-12T08:48:55.119Z,38.32
2018-08-12T08:51:21.751Z,38.15
2018-08-12T08:53:48.390Z,38.07
2018-08-12T08:56:15.037Z,38.02
2018-08-12T08:58:41.731Z,38.02
2018-08-12T09:01:08.365Z,37.78
2018-08-12T09:03:35.014Z,37.86
2018-08-12T09:06:01.672Z,37.64
2018-08-12T09:08:28.539Z,37.65
2018-08-12T09:10:54.946Z,37.45
2018-08-12T09:13:21.865Z,37.56
2018-08-12T09:15:48.472Z,37.35
2018-08-12T09:18:15.206Z,37.47
2018-08-12T09:20:41.745Z,37.37
2018-08-12T09:23:08.384Z,37.40
2018-08-12T09:25:35.024Z,37.31
2018-08-12T09:28:01.655Z,37.22
2018-08-12T09:30:28.354Z,37.17
2018-08-12T09:32:55.045Z,37.14
2018-08-12T09:35:23.787Z,37.12
2018-08-12T09:37:48.341Z,37.08
2018-08-12T09:40:14.980Z,36.96
2018-08-12T09:42:41.621Z,36.86
2018-08-12T09:45:08.275Z,37.03
2018-08-12T09:47:34.901Z,37.04
2018-08-12T09:50:01.550Z,36.93
2018-08-12T09:52:28.185Z,36.84
2018-08-12T09:54:54.827Z,36.84
2018-08-12T09:57:21.476Z,36.86
2018-08-12T09:59:48.116Z,36.83
2018-08-12T10:02:14.753Z,36.74
2018-08-12T10:04:41.384Z,36.79
2018-08-12T10:07:08.028Z,36.79
2018-08-12T10:09:34.732Z,36.72
2018-08-12T10:12:01.374Z,36.82
2018-08-12T10:14:28.009Z,36.68
2018-08-12T10:16:54.789Z,36.81
2018-08-12T10:19:21.392Z,36.69
2018-08-12T10:21:48.049Z,36.66
2018-08-12T10:24:14.729Z,36.79
2018-08-12T10:26:41.378Z,36.81
2018-08-12T10:29:08.050Z,37.89
2018-08-12T10:31:34.673Z,38.35
2018-08-12T10:34:01.366Z,38.21
2018-08-12T10:36:28.046Z,37.69
2018-08-12T10:38:54.695Z,37.39
2018-08-12T10:41:21.335Z,37.31
2018-08-12T10:43:47.971Z,37.17
2018-08-12T10:46:14.611Z,37.14
2018-08-12T10:48:41.252Z,37.12
2018-08-12T10:51:07.880Z,37.02
2018-08-12T10:53:34.514Z,37.04
2018-08-12T10:56:01.172Z,36.98
2018-08-12T10:58:27.856Z,36.91
2018-08-12T11:00:54.502Z,36.85
2018-08-12T11:03:21.186Z,36.74
2018-08-12T11:05:47.812Z,36.91
2018-08-12T11:08:14.458Z,36.82
2018-08-12T11:10:41.096Z,36.81
2018-08-12T11:13:07.743Z,36.88
2018-08-12T11:15:34.376Z,36.67
2018-08-12T11:18:01.025Z,36.81
2018-08-12T11:20:27.668Z,36.56
2018-08-12T11:22:54.299Z,36.59
2018-08-12T11:25:20.938Z,36.41
2018-08-12T11:27:47.577Z,36.37
2018-08-12T11:30:14.223Z,36.48
2018-08-12T11:32:42.918Z,36.28
2018-08-12T11:35:10.273Z,36.30
2018-08-12T11:37:36.903Z,36.10
2018-08-12T11:40:03.533Z,36.31
2018-08-12T11:42:30.318Z,36.22
2018-08-12T11:44:56.971Z,36.22
2018-08-12T11:47:23.648Z,36.31
2018-08-12T11:49:50.288Z,36.21
2018-08-12T11:52:16.951Z,36.29
2018-08-12T11:54:43.607Z,36.08
2018-08-12T11:57:10.270Z,36.02
2018-08-12T11:59:36.930Z,36.22
2018-08-12T12:02:03.634Z,36.01
2018-08-12T12:04:30.304Z,36.00
2018-08-12T12:06:56.942Z,36.01
2018-08-12T12:09:23.558Z,35.93
2018-08-12T12:11:50.207Z,36.02
2018-08-12T12:14:16.895Z,35.88
2018-08-12T12:16:43.530Z,35.83
2018-08-12T12:19:10.169Z,35.89
2018-08-12T12:21:36.839Z,35.81
2018-08-12T12:24:03.534Z,35.97
2018-08-12T12:26:30.199Z,35.73
2018-08-12T12:28:56.808Z,35.82
2018-08-12T12:31:23.495Z,35.89
2018-08-12T12:33:50.236Z,35.92
2018-08-12T12:36:16.838Z,35.99
2018-08-12T12:38:43.478Z,35.88
2018-08-12T12:41:10.128Z,35.80
2018-08-12T12:43:36.765Z,35.80
2018-08-12T12:46:03.425Z,35.72
2018-08-12T12:48:30.144Z,35.87
2018-08-12T12:50:56.829Z,35.76
2018-08-12T12:53:23.470Z,35.77
2018-08-12T12:55:50.152Z,35.83
2018-08-12T12:58:16.800Z,35.74
2018-08-12T13:00:43.437Z,35.64
2018-08-12T13:03:10.082Z,35.73
2018-08-12T13:05:36.742Z,35.70
2018-08-12T13:08:03.374Z,35.64
2018-08-12T13:10:30.020Z,35.63
2018-08-12T13:12:56.657Z,35.57
2018-08-12T13:15:23.294Z,35.61
2018-08-12T13:17:49.933Z,35.65
2018-08-12T13:20:16.579Z,35.46
2018-08-12T13:22:43.215Z,35.52
2018-08-12T13:25:09.852Z,35.46
2018-08-12T13:27:36.490Z,35.48
2018-08-12T13:30:03.124Z,35.57
2018-08-12T13:32:29.771Z,35.44
2018-08-12T13:34:56.416Z,35.42
2018-08-12T13:37:23.164Z,35.58
2018-08-12T13:39:49.798Z,35.43
2018-08-12T13:42:16.426Z,35.54
2018-08-12T13:44:43.085Z,35.47
2018-08-12T13:47:09.723Z,35.43
2018-08-12T13:49:36.432Z,35.47
2018-08-12T13:52:03.064Z,35.39
2018-08-12T13:54:29.701Z,35.46
2018-08-12T13:56:56.373Z,35.56
2018-08-12T13:59:22.997Z,35.45
2018-08-12T14:01:49.694Z,35.56
2018-08-12T14:04:16.327Z,35.48
2018-08-12T14:06:42.999Z,35.53
2018-08-12T14:09:09.679Z,35.57
2018-08-12T14:11:36.304Z,35.58
2018-08-12T14:14:03.032Z,35.49
2018-08-12T14:16:29.631Z,35.45
2018-08-12T14:18:56.261Z,35.63
2018-08-12T14:21:22.969Z,35.49
2018-08-12T14:23:49.557Z,35.46
2018-08-12T14:26:16.202Z,35.48
2018-08-12T14:28:42.866Z,35.43
2018-08-12T14:31:09.539Z,35.31
2018-08-12T14:33:36.267Z,35.42
2018-08-12T14:36:02.913Z,35.47
2018-08-12T14:38:29.549Z,35.45
2018-08-12T14:40:56.193Z,35.37
2018-08-12T14:43:22.884Z,35.46
2018-08-12T14:45:49.510Z,35.36
2018-08-12T14:48:16.112Z,35.36
2018-08-12T14:50:42.757Z,35.43
2018-08-12T14:53:09.388Z,35.43
2018-08-12T14:55:36.063Z,35.31
2018-08-12T14:58:02.740Z,35.42
2018-08-12T15:00:29.472Z,35.53
2018-08-12T15:02:56.152Z,35.46
2018-08-12T15:05:22.787Z,35.46
2018-08-12T15:07:49.433Z,35.54
2018-08-12T15:10:16.111Z,35.43
2018-08-12T15:12:42.792Z,35.41
2018-08-12T15:15:09.659Z,35.42
2018-08-12T15:17:36.241Z,35.48
2018-08-12T15:20:02.882Z,35.46
2018-08-12T15:22:29.600Z,35.50
2018-08-12T15:24:56.157Z,35.43
2018-08-12T15:27:22.793Z,35.41
2018-08-12T15:29:49.435Z,35.41
2018-08-12T15:32:16.117Z,35.41
2018-08-12T15:34:42.755Z,35.46
2018-08-12T15:37:09.402Z,35.36
2018-08-12T15:39:36.047Z,35.32
2018-08-12T15:42:02.728Z,35.46
2018-08-12T15:44:29.362Z,35.41
2018-08-12T15:46:56.063Z,35.42
2018-08-12T15:49:22.690Z,35.36
2018-08-12T15:51:49.326Z,35.32
2018-08-12T15:54:15.984Z,35.44
2018-08-12T15:56:42.707Z,35.49
2018-08-12T15:59:09.269Z,35.38
2018-08-12T16:01:35.959Z,35.36
2018-08-12T16:04:02.657Z,35.41
2018-08-12T16:06:29.249Z,35.42
2018-08-12T16:08:55.989Z,35.55
2018-08-12T16:11:22.572Z,35.48
2018-08-12T16:13:49.266Z,35.47
2018-08-12T16:16:15.903Z,35.54
2018-08-12T16:18:42.523Z,35.52
2018-08-12T16:21:09.179Z,35.60
2018-08-12T16:23:35.808Z,35.59
2018-08-12T16:26:02.487Z,35.58
2018-08-12T16:28:32.415Z,35.59
2018-08-12T16:30:59.057Z,35.54
2018-08-12T16:33:25.723Z,35.54
2018-08-12T16:35:52.346Z,35.57
2018-08-12T16:38:18.997Z,35.64
2018-08-12T16:40:45.705Z,35.50
2018-08-12T16:43:12.278Z,35.53
2018-08-12T16:45:38.945Z,35.54
2018-08-12T16:48:05.588Z,35.48
2018-08-12T16:50:32.226Z,35.57
2018-08-12T16:52:58.871Z,35.54
2018-08-12T16:55:25.529Z,35.58
2018-08-12T16:57:52.226Z,35.59
2018-08-12T17:00:18.859Z,35.71
2018-08-12T17:02:45.584Z,35.76
2018-08-12T17:05:12.217Z,35.73
2018-08-12T17:07:38.853Z,35.76
2018-08-12T17:10:05.546Z,35.70
2018-08-12T17:12:32.175Z,35.90
2018-08-12T17:14:58.836Z,35.87
2018-08-12T17:17:25.472Z,35.90
2018-08-12T17:19:52.125Z,36.05
2018-08-12T17:22:18.865Z,36.09
2018-08-12T17:24:45.450Z,36.23
2018-08-12T17:27:12.055Z,36.19
2018-08-12T17:29:38.700Z,36.23
2018-08-12T17:32:05.376Z,36.44
2018-08-12T17:34:32.024Z,36.41
2018-08-12T17:36:58.737Z,36.69
2018-08-12T17:39:25.373Z,36.73
2018-08-12T17:41:52.007Z,36.73
2018-08-12T17:44:18.660Z,36.82
2018-08-12T17:46:45.343Z,36.96
2018-08-12T17:49:11.991Z,37.03
2018-08-12T17:51:38.672Z,37.09
2018-08-12T17:54:05.416Z,37.20
2018-08-12T17:56:31.996Z,37.26
2018-08-12T17:58:58.673Z,37.29
2018-08-12T18:01:25.344Z,37.39
2018-08-12T18:03:51.962Z,37.53
2018-08-12T18:06:18.696Z,37.54
2018-08-12T18:08:45.377Z,37.68
2018-08-12T18:11:12.053Z,37.72
2018-08-12T18:13:38.690Z,37.74
2018-08-12T18:16:05.375Z,37.87
2018-08-12T18:18:32.023Z,37.95
2018-08-12T18:20:58.664Z,38.10
2018-08-12T18:23:26.640Z,38.03
2018-08-12T18:25:51.937Z,38.24
2018-08-12T18:28:18.584Z,38.65
2018-08-12T18:30:45.219Z,38.90
2018-08-12T18:33:11.901Z,39.92
2018-08-12T18:35:38.588Z,40.16
2018-08-12T18:38:05.229Z,40.66
2018-08-12T18:40:31.870Z,40.75
2018-08-12T18:42:58.557Z,41.03
2018-08-12T18:45:25.181Z,41.03
2018-08-12T18:47:51.953Z,41.19
2018-08-12T18:50:18.589Z,40.97
2018-08-12T18:52:45.230Z,41.26
2018-08-12T18:55:11.901Z,41.22
2018-08-12T18:57:38.549Z,41.03
2018-08-12T19:00:05.191Z,41.18
2018-08-12T19:02:31.922Z,41.33
2018-08-12T19:04:58.557Z,41.38
2018-08-12T19:07:25.196Z,41.35
2018-08-12T19:09:51.952Z,41.53
2018-08-12T19:12:18.513Z,41.60
2018-08-12T19:14:45.182Z,41.52
2018-08-12T19:17:11.811Z,41.78
2018-08-12T19:19:38.505Z,41.68
2018-08-12T19:22:05.152Z,41.80
2018-08-12T19:24:31.793Z,41.88
2018-08-12T19:26:58.436Z,41.91
2018-08-12T19:29:25.112Z,41.92
2018-08-12T19:31:51.741Z,42.01
2018-08-12T19:34:18.435Z,41.92
2018-08-12T19:36:45.075Z,42.02
2018-08-12T19:39:11.744Z,42.10
2018-08-12T19:41:38.390Z,41.90
2018-08-12T19:44:05.054Z,41.92
2018-08-12T19:46:31.688Z,41.89
2018-08-12T19:48:58.358Z,41.92
2018-08-12T19:51:24.994Z,41.95
2018-08-12T19:53:51.690Z,42.05
2018-08-12T19:56:18.353Z,42.12
2018-08-12T19:58:45.099Z,42.06
2018-08-12T20:01:11.774Z,42.15
2018-08-12T20:03:38.504Z,42.11
2018-08-12T20:06:05.154Z,42.19
2018-08-12T20:08:31.794Z,42.06
2018-08-12T20:10:58.514Z,42.01
2018-08-12T20:13:25.194Z,42.18
2018-08-12T20:15:51.845Z,41.99
2018-08-12T20:18:18.467Z,41.98
2018-08-12T20:20:45.105Z,42.23
2018-08-12T20:23:11.773Z,42.22
2018-08-12T20:25:38.414Z,42.07
2018-08-12T20:28:05.179Z,42.25
2018-08-12T20:30:31.822Z,42.20
2018-08-12T20:32:58.430Z,42.10
2018-08-12T20:35:25.122Z,42.07
2018-08-12T20:37:51.774Z,42.23
2018-08-12T20:40:18.407Z,42.05
2018-08-12T20:42:45.061Z,42.10
2018-08-12T20:45:11.768Z,42.14
2018-08-12T20:47:38.358Z,42.13
2018-08-12T20:50:05.046Z,42.16
2018-08-12T20:52:31.733Z,41.93
2018-08-12T20:54:58.361Z,42.10
2018-08-12T20:57:24.995Z,41.92
2018-08-12T20:59:51.634Z,42.14
2018-08-12T21:02:18.352Z,42.22
2018-08-12T21:04:45.000Z,42.09
2018-08-12T21:07:11.636Z,42.14
2018-08-12T21:09:38.283Z,42.10
2018-08-12T21:12:05.094Z,42.12
2018-08-12T21:14:31.597Z,42.11
2018-08-12T21:16:58.233Z,42.08
2018-08-12T21:19:24.938Z,42.00
2018-08-12T21:21:51.541Z,42.14
2018-08-12T21:24:18.306Z,42.03
2018-08-12T21:26:44.990Z,42.14
2018-08-12T21:29:11.625Z,42.05
2018-08-12T21:31:38.303Z,42.00
2018-08-12T21:34:04.945Z,41.93
2018-08-12T21:36:31.632Z,42.25
2018-08-12T21:38:58.279Z,42.06
2018-08-12T21:41:25.014Z,42.14
2018-08-12T21:43:51.660Z,42.09
2018-08-12T21:46:18.295Z,42.08
2018-08-12T21:48:44.942Z,42.11
2018-08-12T21:51:11.570Z,42.02
2018-08-12T21:53:38.258Z,41.93
2018-08-12T21:56:04.908Z,41.89
2018-08-12T21:58:31.582Z,42.10
2018-08-12T22:00:58.240Z,41.96
2018-08-12T22:03:24.886Z,42.04
2018-08-12T22:05:51.543Z,42.01
2018-08-12T22:08:18.146Z,42.16
2018-08-12T22:10:44.842Z,42.09
2018-08-12T22:13:11.533Z,42.22
2018-08-12T22:15:38.191Z,42.20
2018-08-12T22:18:04.843Z,42.15
2018-08-12T22:20:31.515Z,42.22
2018-08-12T22:22:58.152Z,42.27
2018-08-12T22:25:24.828Z,42.31
2018-08-12T22:27:51.455Z,42.40
2018-08-12T22:30:18.140Z,42.32
2018-08-12T22:32:44.822Z,42.37
2018-08-12T22:35:11.524Z,42.38
2018-08-12T22:37:38.158Z,42.45
2018-08-12T22:40:04.843Z,42.52
2018-08-12T22:42:31.479Z,42.50
2018-08-12T22:44:58.107Z,42.49
2018-08-12T22:47:24.810Z,42.50
2018-08-12T22:49:51.444Z,42.44
2018-08-12T22:52:18.088Z,42.61
2018-08-12T22:54:44.734Z,42.57
2018-08-12T22:57:11.394Z,42.54
2018-08-12T22:59:38.130Z,42.47
2018-08-12T23:02:04.766Z,42.48
2018-08-12T23:04:31.450Z,42.50
2018-08-12T23:06:58.083Z,42.47
2018-08-12T23:09:24.824Z,42.41
2018-08-12T23:11:51.520Z,42.34
2018-08-12T23:14:18.216Z,42.32
2018-08-12T23:16:44.853Z,42.45
2018-08-12T23:19:11.538Z,42.35
2018-08-12T23:21:38.172Z,42.35
2018-08-12T23:24:04.920Z,42.44
2018-08-12T23:26:31.561Z,42.28
2018-08-12T23:28:58.213Z,42.37
2018-08-12T23:31:24.854Z,42.32
2018-08-12T23:33:51.536Z,42.35
2018-08-12T23:36:18.180Z,42.43
2018-08-12T23:38:44.820Z,42.41
2018-08-12T23:41:11.465Z,42.46
2018-08-12T23:43:38.153Z,42.48
2018-08-12T23:46:04.797Z,42.54
2018-08-12T23:48:31.505Z,42.61
2018-08-12T23:50:58.174Z,42.42
2018-08-12T23:53:24.906Z,42.47
2018-08-12T23:55:51.508Z,42.40
2018-08-12T23:58:18.185Z,42.48
